sensor_id;sensor_type;location;lat;lon;timestamp;temperature;humidity
39345;DHT22;25061;51.954;6.996;2023-04-03T00:01:15;3.70;99.90
39345;DHT22;25061;51.954;6.996;2023-04-03T00:03:41;3.70;99.90
39345;DHT22;25061;51.954;6.996;2023-04-03T00:06:07;3.70;99.90
39345;DHT22;25061;51.954;6.996;2023-04-03T00:08:35;3.60;99.90
39345;DHT22;25061;51.954;6.996;2023-04-03T00:11:01;3.60;99.90
39345;DHT22;25061;51.954;6.996;2023-04-03T00:13:27;3.60;99.90
39345;DHT22;25061;51.954;6.996;2023-04-03T00:15:53;3.60;99.90
39345;DHT22;25061;51.954;6.996;2023-04-03T00:18:18;3.50;99.90
39345;DHT22;25061;51.954;6.996;2023-04-03T00:20:44;3.50;99.90
39345;DHT22;25061;51.954;6.996;2023-04-03T00:23:10;3.50;99.90
39345;DHT22;25061;51.954;6.996;2023-04-03T00:25:36;3.40;99.90
39345;DHT22;25061;51.954;6.996;2023-04-03T00:28:03;3.40;99.90
39345;DHT22;25061;51.954;6.996;2023-04-03T00:30:29;3.40;99.90
39345;DHT22;25061;51.954;6.996;2023-04-03T00:32:55;3.40;99.90
39345;DHT22;25061;51.954;6.996;2023-04-03T00:35:22;3.30;99.90
39345;DHT22;25061;51.954;6.996;2023-04-03T00:37:51;3.40;99.90
39345;DHT22;25061;51.954;6.996;2023-04-03T00:40:17;3.40;99.90
39345;DHT22;25061;51.954;6.996;2023-04-03T00:42:45;3.30;99.90
39345;DHT22;25061;51.954;6.996;2023-04-03T00:45:26;3.30;99.90
39345;DHT22;25061;51.954;6.996;2023-04-03T00:47:52;3.30;99.90
39345;DHT22;25061;51.954;6.996;2023-04-03T00:50:18;3.30;99.90
39345;DHT22;25061;51.954;6.996;2023-04-03T00:52:44;3.30;99.90
39345;DHT22;25061;51.954;6.996;2023-04-03T00:55:12;3.30;99.90
39345;DHT22;25061;51.954;6.996;2023-04-03T00:57:40;3.20;99.90
39345;DHT22;25061;51.954;6.996;2023-04-03T01:00:09;3.20;99.90
39345;DHT22;25061;51.954;6.996;2023-04-03T01:02:36;3.30;99.90
39345;DHT22;25061;51.954;6.996;2023-04-03T01:05:11;3.30;99.90
39345;DHT22;25061;51.954;6.996;2023-04-03T01:07:38;3.20;99.90
39345;DHT22;25061;51.954;6.996;2023-04-03T01:10:08;3.20;99.90
39345;DHT22;25061;51.954;6.996;2023-04-03T01:12:39;3.20;99.90
39345;DHT22;25061;51.954;6.996;2023-04-03T01:15:12;3.10;99.90
39345;DHT22;25061;51.954;6.996;2023-04-03T01:17:45;3.10;99.90
39345;DHT22;25061;51.954;6.996;2023-04-03T01:25:44;3.00;99.90
39345;DHT22;25061;51.954;6.996;2023-04-03T01:28:21;3.00;99.90
39345;DHT22;25061;51.954;6.996;2023-04-03T01:31:13;3.00;99.90
39345;DHT22;25061;51.954;6.996;2023-04-03T01:33:37;3.00;99.90
39345;DHT22;25061;51.954;6.996;2023-04-03T01:36:04;2.90;99.90
39345;DHT22;25061;51.954;6.996;2023-04-03T01:38:45;2.90;99.90
39345;DHT22;25061;51.954;6.996;2023-04-03T01:41:11;2.80;99.90
39345;DHT22;25061;51.954;6.996;2023-04-03T01:43:37;2.90;99.90
39345;DHT22;25061;51.954;6.996;2023-04-03T01:46:02;2.80;99.90
39345;DHT22;25061;51.954;6.996;2023-04-03T01:48:28;2.80;99.90
39345;DHT22;25061;51.954;6.996;2023-04-03T01:50:54;2.70;99.90
39345;DHT22;25061;51.954;6.996;2023-04-03T01:53:19;2.70;99.90
39345;DHT22;25061;51.954;6.996;2023-04-03T01:55:45;2.70;99.90
39345;DHT22;25061;51.954;6.996;2023-04-03T01:58:11;2.70;99.90
39345;DHT22;25061;51.954;6.996;2023-04-03T02:00:36;2.60;99.90
39345;DHT22;25061;51.954;6.996;2023-04-03T02:03:02;2.60;99.90
39345;DHT22;25061;51.954;6.996;2023-04-03T02:05:28;2.60;99.90
39345;DHT22;25061;51.954;6.996;2023-04-03T02:07:54;2.50;99.90
39345;DHT22;25061;51.954;6.996;2023-04-03T02:10:20;2.50;99.90
39345;DHT22;25061;51.954;6.996;2023-04-03T02:12:45;2.50;99.90
39345;DHT22;25061;51.954;6.996;2023-04-03T02:15:11;2.50;99.90
39345;DHT22;25061;51.954;6.996;2023-04-03T02:17:37;2.50;99.90
39345;DHT22;25061;51.954;6.996;2023-04-03T02:20:03;2.40;99.90
39345;DHT22;25061;51.954;6.996;2023-04-03T02:22:29;2.40;99.90
39345;DHT22;25061;51.954;6.996;2023-04-03T02:24:55;2.40;99.90
39345;DHT22;25061;51.954;6.996;2023-04-03T02:27:21;2.30;99.90
39345;DHT22;25061;51.954;6.996;2023-04-03T02:29:46;2.30;99.90
39345;DHT22;25061;51.954;6.996;2023-04-03T02:32:12;2.20;99.90
39345;DHT22;25061;51.954;6.996;2023-04-03T02:34:38;2.30;99.90
39345;DHT22;25061;51.954;6.996;2023-04-03T02:37:03;2.20;99.90
39345;DHT22;25061;51.954;6.996;2023-04-03T02:39:29;2.20;99.90
39345;DHT22;25061;51.954;6.996;2023-04-03T02:41:54;2.20;99.90
39345;DHT22;25061;51.954;6.996;2023-04-03T02:44:20;2.20;99.90
39345;DHT22;25061;51.954;6.996;2023-04-03T02:46:46;2.20;99.90
39345;DHT22;25061;51.954;6.996;2023-04-03T02:49:11;2.10;99.90
39345;DHT22;25061;51.954;6.996;2023-04-03T02:51:37;2.10;99.90
39345;DHT22;25061;51.954;6.996;2023-04-03T02:54:03;2.00;99.90
39345;DHT22;25061;51.954;6.996;2023-04-03T02:56:28;2.00;99.90
39345;DHT22;25061;51.954;6.996;2023-04-03T02:58:54;2.00;99.90
39345;DHT22;25061;51.954;6.996;2023-04-03T03:01:20;2.00;99.90
39345;DHT22;25061;51.954;6.996;2023-04-03T03:03:46;1.90;99.90
39345;DHT22;25061;51.954;6.996;2023-04-03T03:06:17;1.90;99.90
39345;DHT22;25061;51.954;6.996;2023-04-03T03:08:43;1.80;99.90
39345;DHT22;25061;51.954;6.996;2023-04-03T03:11:09;1.80;99.90
39345;DHT22;25061;51.954;6.996;2023-04-03T03:13:35;1.80;99.90
39345;DHT22;25061;51.954;6.996;2023-04-03T03:16:02;1.70;99.90
39345;DHT22;25061;51.954;6.996;2023-04-03T03:18:28;1.70;99.90
39345;DHT22;25061;51.954;6.996;2023-04-03T03:20:59;1.80;99.90
39345;DHT22;25061;51.954;6.996;2023-04-03T03:23:26;1.70;99.90
39345;DHT22;25061;51.954;6.996;2023-04-03T03:26:00;1.70;99.90
39345;DHT22;25061;51.954;6.996;2023-04-03T03:28:29;1.60;99.90
39345;DHT22;25061;51.954;6.996;2023-04-03T03:31:04;1.60;99.90
39345;DHT22;25061;51.954;6.996;2023-04-03T03:33:29;1.60;99.90
39345;DHT22;25061;51.954;6.996;2023-04-03T03:35:55;1.60;99.90
39345;DHT22;25061;51.954;6.996;2023-04-03T03:38:22;1.50;99.90
39345;DHT22;25061;51.954;6.996;2023-04-03T03:40:49;1.50;99.90
39345;DHT22;25061;51.954;6.996;2023-04-03T03:43:15;1.50;99.90
39345;DHT22;25061;51.954;6.996;2023-04-03T03:45:41;1.40;99.90
39345;DHT22;25061;51.954;6.996;2023-04-03T03:48:10;1.50;99.90
39345;DHT22;25061;51.954;6.996;2023-04-03T03:50:35;1.50;99.90
39345;DHT22;25061;51.954;6.996;2023-04-03T03:53:01;1.40;99.90
39345;DHT22;25061;51.954;6.996;2023-04-03T03:55:27;1.40;99.90
39345;DHT22;25061;51.954;6.996;2023-04-03T03:57:53;1.40;99.90
39345;DHT22;25061;51.954;6.996;2023-04-03T04:00:19;1.40;99.90
39345;DHT22;25061;51.954;6.996;2023-04-03T04:02:44;1.40;99.90
39345;DHT22;25061;51.954;6.996;2023-04-03T04:05:11;1.30;99.90
39345;DHT22;25061;51.954;6.996;2023-04-03T04:07:36;1.30;99.90
39345;DHT22;25061;51.954;6.996;2023-04-03T04:10:02;1.30;99.90
39345;DHT22;25061;51.954;6.996;2023-04-03T04:12:28;1.30;99.90
39345;DHT22;25061;51.954;6.996;2023-04-03T04:14:54;1.20;99.90
39345;DHT22;25061;51.954;6.996;2023-04-03T04:17:19;1.20;99.90
39345;DHT22;25061;51.954;6.996;2023-04-03T04:19:45;1.20;99.90
39345;DHT22;25061;51.954;6.996;2023-04-03T04:22:11;1.20;99.90
39345;DHT22;25061;51.954;6.996;2023-04-03T04:24:37;1.10;99.90
39345;DHT22;25061;51.954;6.996;2023-04-03T04:27:02;1.10;99.90
39345;DHT22;25061;51.954;6.996;2023-04-03T04:29:28;1.10;99.90
39345;DHT22;25061;51.954;6.996;2023-04-03T04:31:54;1.00;99.90
39345;DHT22;25061;51.954;6.996;2023-04-03T04:34:19;1.00;99.90
39345;DHT22;25061;51.954;6.996;2023-04-03T04:36:45;1.00;99.90
39345;DHT22;25061;51.954;6.996;2023-04-03T04:39:11;1.00;99.90
39345;DHT22;25061;51.954;6.996;2023-04-03T04:41:36;1.00;99.90
39345;DHT22;25061;51.954;6.996;2023-04-03T04:44:02;0.90;99.90
39345;DHT22;25061;51.954;6.996;2023-04-03T04:46:28;0.90;99.90
39345;DHT22;25061;51.954;6.996;2023-04-03T04:48:53;0.90;99.90
39345;DHT22;25061;51.954;6.996;2023-04-03T04:51:19;0.80;99.90
39345;DHT22;25061;51.954;6.996;2023-04-03T04:53:45;0.80;99.90
39345;DHT22;25061;51.954;6.996;2023-04-03T04:56:11;0.80;99.90
39345;DHT22;25061;51.954;6.996;2023-04-03T04:58:36;0.80;99.90
39345;DHT22;25061;51.954;6.996;2023-04-03T05:01:08;0.80;99.90
39345;DHT22;25061;51.954;6.996;2023-04-03T05:03:34;0.70;99.90
39345;DHT22;25061;51.954;6.996;2023-04-03T05:05:59;0.70;99.90
39345;DHT22;25061;51.954;6.996;2023-04-03T05:08:25;0.70;99.90
39345;DHT22;25061;51.954;6.996;2023-04-03T05:10:51;0.60;99.90
39345;DHT22;25061;51.954;6.996;2023-04-03T05:13:19;0.70;99.90
39345;DHT22;25061;51.954;6.996;2023-04-03T05:15:46;0.60;99.90
39345;DHT22;25061;51.954;6.996;2023-04-03T05:18:12;0.60;99.90
39345;DHT22;25061;51.954;6.996;2023-04-03T05:20:38;0.50;99.90
39345;DHT22;25061;51.954;6.996;2023-04-03T05:23:04;0.50;99.90
39345;DHT22;25061;51.954;6.996;2023-04-03T05:25:30;0.50;99.90
39345;DHT22;25061;51.954;6.996;2023-04-03T05:27:56;0.60;99.90
39345;DHT22;25061;51.954;6.996;2023-04-03T05:30:22;1.50;99.90
39345;DHT22;25061;51.954;6.996;2023-04-03T05:32:48;2.30;99.90
39345;DHT22;25061;51.954;6.996;2023-04-03T05:35:13;2.20;99.90
39345;DHT22;25061;51.954;6.996;2023-04-03T05:37:39;2.10;99.90
39345;DHT22;25061;51.954;6.996;2023-04-03T05:40:06;1.50;99.90
39345;DHT22;25061;51.954;6.996;2023-04-03T05:42:32;1.30;99.90
39345;DHT22;25061;51.954;6.996;2023-04-03T05:44:57;1.10;99.90
39345;DHT22;25061;51.954;6.996;2023-04-03T05:47:23;1.10;99.90
39345;DHT22;25061;51.954;6.996;2023-04-03T05:49:49;1.10;99.90
39345;DHT22;25061;51.954;6.996;2023-04-03T05:52:28;1.20;99.90
39345;DHT22;25061;51.954;6.996;2023-04-03T05:54:54;1.30;99.90
39345;DHT22;25061;51.954;6.996;2023-04-03T05:57:20;1.40;99.90
39345;DHT22;25061;51.954;6.996;2023-04-03T05:59:46;1.50;99.90
39345;DHT22;25061;51.954;6.996;2023-04-03T06:02:17;1.70;99.90
39345;DHT22;25061;51.954;6.996;2023-04-03T06:04:44;1.80;99.90
39345;DHT22;25061;51.954;6.996;2023-04-03T06:07:15;1.80;99.90
39345;DHT22;25061;51.954;6.996;2023-04-03T06:09:41;2.00;99.90
39345;DHT22;25061;51.954;6.996;2023-04-03T06:12:07;2.10;99.90
39345;DHT22;25061;51.954;6.996;2023-04-03T06:14:33;2.20;99.90
39345;DHT22;25061;51.954;6.996;2023-04-03T06:16:59;2.00;99.90
39345;DHT22;25061;51.954;6.996;2023-04-03T06:19:25;2.20;99.90
39345;DHT22;25061;51.954;6.996;2023-04-03T06:21:51;2.30;99.90
39345;DHT22;25061;51.954;6.996;2023-04-03T06:24:18;2.00;99.90
39345;DHT22;25061;51.954;6.996;2023-04-03T06:26:45;2.10;99.90
39345;DHT22;25061;51.954;6.996;2023-04-03T06:29:11;2.50;99.90
39345;DHT22;25061;51.954;6.996;2023-04-03T06:31:37;2.50;99.90
39345;DHT22;25061;51.954;6.996;2023-04-03T06:34:03;2.50;99.90
39345;DHT22;25061;51.954;6.996;2023-04-03T06:36:29;2.50;99.90
39345;DHT22;25061;51.954;6.996;2023-04-03T06:38:55;2.70;99.90
39345;DHT22;25061;51.954;6.996;2023-04-03T06:41:21;3.00;99.90
39345;DHT22;25061;51.954;6.996;2023-04-03T06:43:47;5.50;99.90
39345;DHT22;25061;51.954;6.996;2023-04-03T06:46:20;8.40;99.90
39345;DHT22;25061;51.954;6.996;2023-04-03T06:48:46;7.90;99.90
39345;DHT22;25061;51.954;6.996;2023-04-03T06:51:23;5.50;99.90
39345;DHT22;25061;51.954;6.996;2023-04-03T06:53:50;4.20;99.90
39345;DHT22;25061;51.954;6.996;2023-04-03T06:56:16;5.90;99.90
39345;DHT22;25061;51.954;6.996;2023-04-03T06:58:43;6.80;99.90
39345;DHT22;25061;51.954;6.996;2023-04-03T07:01:10;5.10;99.90
39345;DHT22;25061;51.954;6.996;2023-04-03T07:03:37;4.10;99.90
39345;DHT22;25061;51.954;6.996;2023-04-03T07:06:04;3.40;99.90
39345;DHT22;25061;51.954;6.996;2023-04-03T07:08:30;3.40;99.90
39345;DHT22;25061;51.954;6.996;2023-04-03T07:10:55;3.50;99.90
39345;DHT22;25061;51.954;6.996;2023-04-03T07:13:21;3.60;99.90
39345;DHT22;25061;51.954;6.996;2023-04-03T07:15:47;3.40;99.90
39345;DHT22;25061;51.954;6.996;2023-04-03T07:18:13;3.20;99.90
39345;DHT22;25061;51.954;6.996;2023-04-03T07:20:39;3.00;99.90
39345;DHT22;25061;51.954;6.996;2023-04-03T07:23:05;3.40;99.90
39345;DHT22;25061;51.954;6.996;2023-04-03T07:25:31;3.60;99.90
39345;DHT22;25061;51.954;6.996;2023-04-03T07:27:57;3.50;99.90
39345;DHT22;25061;51.954;6.996;2023-04-03T07:30:23;3.60;99.90
39345;DHT22;25061;51.954;6.996;2023-04-03T07:32:49;3.70;99.90
39345;DHT22;25061;51.954;6.996;2023-04-03T07:35:17;3.30;99.90
39345;DHT22;25061;51.954;6.996;2023-04-03T07:37:43;3.50;99.90
39345;DHT22;25061;51.954;6.996;2023-04-03T07:40:09;3.70;99.90
39345;DHT22;25061;51.954;6.996;2023-04-03T07:42:35;3.60;99.90
39345;DHT22;25061;51.954;6.996;2023-04-03T07:45:02;3.80;99.90
39345;DHT22;25061;51.954;6.996;2023-04-03T07:47:30;3.80;99.90
39345;DHT22;25061;51.954;6.996;2023-04-03T07:49:56;3.90;99.90
39345;DHT22;25061;51.954;6.996;2023-04-03T07:52:22;3.60;99.90
39345;DHT22;25061;51.954;6.996;2023-04-03T07:54:48;3.80;99.90
39345;DHT22;25061;51.954;6.996;2023-04-03T07:57:14;4.00;99.90
39345;DHT22;25061;51.954;6.996;2023-04-03T07:59:40;4.00;99.90
39345;DHT22;25061;51.954;6.996;2023-04-03T08:02:09;4.00;99.90
39345;DHT22;25061;51.954;6.996;2023-04-03T08:04:35;4.20;99.90
39345;DHT22;25061;51.954;6.996;2023-04-03T08:07:01;4.10;99.90
39345;DHT22;25061;51.954;6.996;2023-04-03T08:09:26;4.30;99.90
39345;DHT22;25061;51.954;6.996;2023-04-03T08:11:52;4.50;99.90
39345;DHT22;25061;51.954;6.996;2023-04-03T08:14:19;4.50;99.90
39345;DHT22;25061;51.954;6.996;2023-04-03T08:16:46;4.70;99.90
39345;DHT22;25061;51.954;6.996;2023-04-03T08:19:12;4.50;99.90
39345;DHT22;25061;51.954;6.996;2023-04-03T08:21:40;4.80;99.90
39345;DHT22;25061;51.954;6.996;2023-04-03T08:24:07;4.70;99.90
39345;DHT22;25061;51.954;6.996;2023-04-03T08:26:32;4.70;99.90
39345;DHT22;25061;51.954;6.996;2023-04-03T08:28:58;4.90;99.90
39345;DHT22;25061;51.954;6.996;2023-04-03T08:31:24;4.60;99.90
39345;DHT22;25061;51.954;6.996;2023-04-03T08:33:50;4.80;99.90
39345;DHT22;25061;51.954;6.996;2023-04-03T08:36:24;5.00;99.90
39345;DHT22;25061;51.954;6.996;2023-04-03T08:38:51;4.80;99.90
39345;DHT22;25061;51.954;6.996;2023-04-03T08:41:36;5.10;99.90
39345;DHT22;25061;51.954;6.996;2023-04-03T08:49:21;5.40;99.90
39345;DHT22;25061;51.954;6.996;2023-04-03T08:51:49;5.60;99.90
39345;DHT22;25061;51.954;6.996;2023-04-03T08:54:35;6.00;99.90
39345;DHT22;25061;51.954;6.996;2023-04-03T08:57:04;6.00;99.90
39345;DHT22;25061;51.954;6.996;2023-04-03T08:59:34;5.90;99.90
39345;DHT22;25061;51.954;6.996;2023-04-03T09:02:21;5.70;99.90
39345;DHT22;25061;51.954;6.996;2023-04-03T09:04:48;5.70;99.90
39345;DHT22;25061;51.954;6.996;2023-04-03T09:07:20;5.90;99.90
39345;DHT22;25061;51.954;6.996;2023-04-03T09:09:48;5.90;99.90
39345;DHT22;25061;51.954;6.996;2023-04-03T09:12:21;5.90;99.50
39345;DHT22;25061;51.954;6.996;2023-04-03T09:23:58;5.70;99.10
39345;DHT22;25061;51.954;6.996;2023-04-03T09:26:33;6.30;98.80
39345;DHT22;25061;51.954;6.996;2023-04-03T09:29:05;6.30;97.50
39345;DHT22;25061;51.954;6.996;2023-04-03T09:31:39;6.50;97.30
39345;DHT22;25061;51.954;6.996;2023-04-03T09:34:14;6.30;96.50
39345;DHT22;25061;51.954;6.996;2023-04-03T09:36:46;6.30;96.00
39345;DHT22;25061;51.954;6.996;2023-04-03T09:39:26;6.70;96.80
39345;DHT22;25061;51.954;6.996;2023-04-03T09:45:02;6.40;95.40
39345;DHT22;25061;51.954;6.996;2023-04-03T09:47:33;6.50;94.20
39345;DHT22;25061;51.954;6.996;2023-04-03T09:52:41;6.70;96.40
39345;DHT22;25061;51.954;6.996;2023-04-03T09:55:28;6.80;96.00
39345;DHT22;25061;51.954;6.996;2023-04-03T09:58:02;6.30;94.00
39345;DHT22;25061;51.954;6.996;2023-04-03T10:00:35;6.60;94.90
39345;DHT22;25061;51.954;6.996;2023-04-03T10:03:01;6.50;95.30
39345;DHT22;25061;51.954;6.996;2023-04-03T10:05:40;6.50;95.90
39345;DHT22;25061;51.954;6.996;2023-04-03T10:10:48;6.70;96.40
39345;DHT22;25061;51.954;6.996;2023-04-03T10:13:17;6.60;95.80
39345;DHT22;25061;51.954;6.996;2023-04-03T10:16:01;7.30;98.30
39345;DHT22;25061;51.954;6.996;2023-04-03T10:21:15;6.90;95.30
39345;DHT22;25061;51.954;6.996;2023-04-03T10:23:53;7.50;97.30
39345;DHT22;25061;51.954;6.996;2023-04-03T10:29:16;6.70;95.30
39345;DHT22;25061;51.954;6.996;2023-04-03T10:34:37;6.90;98.00
39345;DHT22;25061;51.954;6.996;2023-04-03T10:45:59;7.30;96.90
39345;DHT22;25061;51.954;6.996;2023-04-03T10:48:49;7.40;96.80
39345;DHT22;25061;51.954;6.996;2023-04-03T10:51:50;7.30;95.00
39345;DHT22;25061;51.954;6.996;2023-04-03T10:54:26;7.20;95.00
39345;DHT22;25061;51.954;6.996;2023-04-03T10:57:03;7.10;95.30
39345;DHT22;25061;51.954;6.996;2023-04-03T10:59:33;7.00;94.90
39345;DHT22;25061;51.954;6.996;2023-04-03T11:02:28;7.00;94.90
39345;DHT22;25061;51.954;6.996;2023-04-03T11:07:38;7.20;95.60
39345;DHT22;25061;51.954;6.996;2023-04-03T11:10:17;7.10;95.00
39345;DHT22;25061;51.954;6.996;2023-04-03T11:13:06;7.50;96.10
39345;DHT22;25061;51.954;6.996;2023-04-03T11:15:39;7.60;97.80
39345;DHT22;25061;51.954;6.996;2023-04-03T11:18:17;7.30;93.30
39345;DHT22;25061;51.954;6.996;2023-04-03T11:20:57;7.20;94.50
39345;DHT22;25061;51.954;6.996;2023-04-03T11:23:32;7.30;93.40
39345;DHT22;25061;51.954;6.996;2023-04-03T11:26:27;7.20;94.20
39345;DHT22;25061;51.954;6.996;2023-04-03T11:28:59;7.40;93.80
39345;DHT22;25061;51.954;6.996;2023-04-03T11:31:54;7.50;93.70
39345;DHT22;25061;51.954;6.996;2023-04-03T11:34:33;7.70;94.50
39345;DHT22;25061;51.954;6.996;2023-04-03T11:39:45;7.80;95.70
39345;DHT22;25061;51.954;6.996;2023-04-03T11:42:38;7.50;94.50
39345;DHT22;25061;51.954;6.996;2023-04-03T11:48:03;7.50;95.70
39345;DHT22;25061;51.954;6.996;2023-04-03T12:46:03;8.20;96.60
39345;DHT22;25061;51.954;6.996;2023-04-03T12:48:30;7.70;95.10
39345;DHT22;25061;51.954;6.996;2023-04-03T12:50:58;7.90;95.50
39345;DHT22;25061;51.954;6.996;2023-04-03T12:53:37;8.00;96.10
39345;DHT22;25061;51.954;6.996;2023-04-03T12:56:28;8.10;96.10
39345;DHT22;25061;51.954;6.996;2023-04-03T12:58:56;8.10;95.20
39345;DHT22;25061;51.954;6.996;2023-04-03T13:01:37;8.00;95.50
39345;DHT22;25061;51.954;6.996;2023-04-03T13:04:03;7.90;97.00
39345;DHT22;25061;51.954;6.996;2023-04-03T13:06:42;8.00;95.80
39345;DHT22;25061;51.954;6.996;2023-04-03T13:09:37;7.90;96.30
39345;DHT22;25061;51.954;6.996;2023-04-03T13:12:15;8.40;97.30
39345;DHT22;25061;51.954;6.996;2023-04-03T13:14:54;8.70;97.50
39345;DHT22;25061;51.954;6.996;2023-04-03T13:17:22;8.60;95.90
39345;DHT22;25061;51.954;6.996;2023-04-03T13:19:49;8.40;96.00
39345;DHT22;25061;51.954;6.996;2023-04-03T13:22:32;8.20;96.40
39345;DHT22;25061;51.954;6.996;2023-04-03T13:25:01;8.20;96.60
39345;DHT22;25061;51.954;6.996;2023-04-03T13:27:31;8.40;96.40
39345;DHT22;25061;51.954;6.996;2023-04-03T13:29:59;8.40;96.40
39345;DHT22;25061;51.954;6.996;2023-04-03T13:32:28;8.50;96.90
39345;DHT22;25061;51.954;6.996;2023-04-03T13:34:55;8.60;96.90
39345;DHT22;25061;51.954;6.996;2023-04-03T13:42:34;8.30;96.10
39345;DHT22;25061;51.954;6.996;2023-04-03T13:47:47;8.20;97.70
39345;DHT22;25061;51.954;6.996;2023-04-03T13:50:23;8.60;96.90
39345;DHT22;25061;51.954;6.996;2023-04-03T13:53:02;8.70;95.90
39345;DHT22;25061;51.954;6.996;2023-04-03T13:55:34;8.50;95.70
39345;DHT22;25061;51.954;6.996;2023-04-03T13:58:02;8.80;95.80
39345;DHT22;25061;51.954;6.996;2023-04-03T14:00:49;9.00;98.40
39345;DHT22;25061;51.954;6.996;2023-04-03T14:05:46;8.30;95.80
39345;DHT22;25061;51.954;6.996;2023-04-03T14:08:12;8.40;96.90
39345;DHT22;25061;51.954;6.996;2023-04-03T14:10:38;8.90;96.80
39345;DHT22;25061;51.954;6.996;2023-04-03T14:13:05;9.10;95.70
39345;DHT22;25061;51.954;6.996;2023-04-03T14:15:31;8.90;97.40
39345;DHT22;25061;51.954;6.996;2023-04-03T14:17:58;8.80;95.70
39345;DHT22;25061;51.954;6.996;2023-04-03T14:20:26;8.50;96.00
39345;DHT22;25061;51.954;6.996;2023-04-03T14:22:52;8.70;95.90
39345;DHT22;25061;51.954;6.996;2023-04-03T14:25:20;8.80;96.40
39345;DHT22;25061;51.954;6.996;2023-04-03T14:27:49;8.90;96.50
39345;DHT22;25061;51.954;6.996;2023-04-03T14:30:19;9.10;95.50
39345;DHT22;25061;51.954;6.996;2023-04-03T14:32:46;8.70;94.80
39345;DHT22;25061;51.954;6.996;2023-04-03T14:35:13;8.70;96.00
39345;DHT22;25061;51.954;6.996;2023-04-03T14:37:40;8.80;95.30
39345;DHT22;25061;51.954;6.996;2023-04-03T14:40:07;9.20;95.50
39345;DHT22;25061;51.954;6.996;2023-04-03T14:42:36;9.10;95.40
39345;DHT22;25061;51.954;6.996;2023-04-03T14:45:05;8.70;96.00
39345;DHT22;25061;51.954;6.996;2023-04-03T14:47:32;8.80;96.20
39345;DHT22;25061;51.954;6.996;2023-04-03T14:50:00;8.80;96.20
39345;DHT22;25061;51.954;6.996;2023-04-03T14:52:29;8.40;95.00
39345;DHT22;25061;51.954;6.996;2023-04-03T14:54:59;8.60;96.00
39345;DHT22;25061;51.954;6.996;2023-04-03T14:57:27;8.40;95.80
39345;DHT22;25061;51.954;6.996;2023-04-03T14:59:53;8.80;95.80
39345;DHT22;25061;51.954;6.996;2023-04-03T15:02:29;8.60;95.90
39345;DHT22;25061;51.954;6.996;2023-04-03T15:04:56;8.90;95.30
39345;DHT22;25061;51.954;6.996;2023-04-03T15:07:24;8.70;95.70
39345;DHT22;25061;51.954;6.996;2023-04-03T15:09:51;8.70;95.60
39345;DHT22;25061;51.954;6.996;2023-04-03T15:12:17;8.90;96.30
39345;DHT22;25061;51.954;6.996;2023-04-03T15:14:42;9.20;95.90
39345;DHT22;25061;51.954;6.996;2023-04-03T15:17:14;8.80;95.70
39345;DHT22;25061;51.954;6.996;2023-04-03T15:19:41;8.60;96.00
39345;DHT22;25061;51.954;6.996;2023-04-03T15:22:08;8.30;95.40
39345;DHT22;25061;51.954;6.996;2023-04-03T15:24:35;8.60;96.40
39345;DHT22;25061;51.954;6.996;2023-04-03T15:27:01;8.60;95.40
39345;DHT22;25061;51.954;6.996;2023-04-03T15:29:27;8.50;95.90
39345;DHT22;25061;51.954;6.996;2023-04-03T15:31:53;8.50;96.10
39345;DHT22;25061;51.954;6.996;2023-04-03T15:34:18;8.40;95.40
39345;DHT22;25061;51.954;6.996;2023-04-03T15:36:44;8.40;96.10
39345;DHT22;25061;51.954;6.996;2023-04-03T15:39:10;8.40;95.60
39345;DHT22;25061;51.954;6.996;2023-04-03T15:41:35;8.20;95.40
39345;DHT22;25061;51.954;6.996;2023-04-03T15:44:01;8.20;95.90
39345;DHT22;25061;51.954;6.996;2023-04-03T15:46:27;8.20;95.30
39345;DHT22;25061;51.954;6.996;2023-04-03T15:48:52;8.20;96.50
39345;DHT22;25061;51.954;6.996;2023-04-03T15:51:21;8.20;96.90
39345;DHT22;25061;51.954;6.996;2023-04-03T15:53:47;8.20;95.30
39345;DHT22;25061;51.954;6.996;2023-04-03T15:56:12;8.00;95.60
39345;DHT22;25061;51.954;6.996;2023-04-03T15:58:38;7.90;95.50
39345;DHT22;25061;51.954;6.996;2023-04-03T16:01:04;7.90;95.80
39345;DHT22;25061;51.954;6.996;2023-04-03T16:03:30;7.80;95.30
39345;DHT22;25061;51.954;6.996;2023-04-03T16:05:56;7.70;95.40
39345;DHT22;25061;51.954;6.996;2023-04-03T16:08:22;7.70;95.20
39345;DHT22;25061;51.954;6.996;2023-04-03T16:10:48;7.70;95.70
39345;DHT22;25061;51.954;6.996;2023-04-03T16:13:14;7.70;96.30
39345;DHT22;25061;51.954;6.996;2023-04-03T16:15:40;7.80;95.50
39345;DHT22;25061;51.954;6.996;2023-04-03T16:18:08;7.70;96.20
39345;DHT22;25061;51.954;6.996;2023-04-03T16:20:34;7.80;96.30
39345;DHT22;25061;51.954;6.996;2023-04-03T16:23:01;7.80;96.20
39345;DHT22;25061;51.954;6.996;2023-04-03T16:25:27;7.70;96.00
39345;DHT22;25061;51.954;6.996;2023-04-03T16:27:53;7.70;96.50
39345;DHT22;25061;51.954;6.996;2023-04-03T16:30:18;7.70;97.30
39345;DHT22;25061;51.954;6.996;2023-04-03T16:32:45;7.80;96.90
39345;DHT22;25061;51.954;6.996;2023-04-03T16:35:11;7.60;96.70
39345;DHT22;25061;51.954;6.996;2023-04-03T16:37:37;7.50;96.80
39345;DHT22;25061;51.954;6.996;2023-04-03T16:40:05;7.50;96.60
39345;DHT22;25061;51.954;6.996;2023-04-03T16:42:31;7.60;96.90
39345;DHT22;25061;51.954;6.996;2023-04-03T16:44:57;7.60;96.60
39345;DHT22;25061;51.954;6.996;2023-04-03T16:47:25;7.50;97.40
39345;DHT22;25061;51.954;6.996;2023-04-03T16:49:51;7.50;96.20
39345;DHT22;25061;51.954;6.996;2023-04-03T16:52:16;7.50;96.70
39345;DHT22;25061;51.954;6.996;2023-04-03T16:54:42;7.50;96.70
39345;DHT22;25061;51.954;6.996;2023-04-03T16:57:10;7.50;97.30
39345;DHT22;25061;51.954;6.996;2023-04-03T16:59:36;7.40;96.50
39345;DHT22;25061;51.954;6.996;2023-04-03T17:02:01;7.30;96.60
39345;DHT22;25061;51.954;6.996;2023-04-03T17:04:28;7.20;96.30
39345;DHT22;25061;51.954;6.996;2023-04-03T17:06:54;7.20;97.40
39345;DHT22;25061;51.954;6.996;2023-04-03T17:09:20;7.30;97.40
39345;DHT22;25061;51.954;6.996;2023-04-03T17:11:46;7.20;96.40
39345;DHT22;25061;51.954;6.996;2023-04-03T17:14:12;7.20;97.70
39345;DHT22;25061;51.954;6.996;2023-04-03T17:16:37;7.10;97.20
39345;DHT22;25061;51.954;6.996;2023-04-03T17:19:04;7.10;97.30
39345;DHT22;25061;51.954;6.996;2023-04-03T17:21:30;7.00;97.10
39345;DHT22;25061;51.954;6.996;2023-04-03T17:24:00;7.00;96.80
39345;DHT22;25061;51.954;6.996;2023-04-03T17:26:26;7.00;97.20
39345;DHT22;25061;51.954;6.996;2023-04-03T17:28:52;6.90;97.60
39345;DHT22;25061;51.954;6.996;2023-04-03T17:31:18;6.90;97.40
39345;DHT22;25061;51.954;6.996;2023-04-03T17:33:44;6.90;97.10
39345;DHT22;25061;51.954;6.996;2023-04-03T17:36:10;6.80;97.10
39345;DHT22;25061;51.954;6.996;2023-04-03T17:38:36;6.80;97.10
39345;DHT22;25061;51.954;6.996;2023-04-03T17:41:05;6.70;97.20
39345;DHT22;25061;51.954;6.996;2023-04-03T17:43:31;6.60;98.00
39345;DHT22;25061;51.954;6.996;2023-04-03T17:46:04;6.60;98.10
39345;DHT22;25061;51.954;6.996;2023-04-03T17:48:32;6.60;97.90
39345;DHT22;25061;51.954;6.996;2023-04-03T17:50:57;6.50;98.50
39345;DHT22;25061;51.954;6.996;2023-04-03T17:53:23;6.50;98.50